Time;durP1;ratioP1;P1;durP2;ratioP2;P2;SDS_P1;SDS_P2;PMS_P1;PMS_P2;Temp;Humidity;BMP_temperature;BMP_pressure;BME280_temperature;BME280_humidity;BME280_pressure;Samples;Min_cycle;Max_cycle;Signal;HPM_P1;HPM_P2
2023/07/21 00:01:53;;;;;;;6.45;2.85;;;;;;;21.36;58.98;94615.34;5057258;28;20047;-79
2023/07/21 00:04:20;;;;;;;5.32;2.45;;;;;;;21.31;59.05;94615.16;5088449;28;20486;-78
2023/07/21 00:06:45;;;;;;;4.82;2.75;;;;;;;21.28;59.19;94620.78;5074645;28;20012;-78
2023/07/21 00:09:11;;;;;;;4.43;2.65;;;;;;;21.12;59.21;94586.84;5105961;28;20406;-77
2023/07/21 00:11:38;;;;;;;4.97;2.67;;;;;;;21.28;59.04;94609.41;5093468;28;20027;-78
2023/07/21 00:14:06;;;;;;;5.57;2.75;;;;;;;21.12;59.01;94607.97;5092419;28;20120;-77
2023/07/21 00:16:33;;;;;;;6.68;3.10;;;;;;;21.18;59.13;94604.53;5091090;28;20028;-77
2023/07/21 00:18:58;;;;;;;4.60;2.80;;;;;;;21.15;59.08;94604.91;5090848;28;20081;-78
2023/07/21 00:21:24;;;;;;;4.38;2.92;;;;;;;21.09;59.32;94589.84;5072323;28;20134;-77
2023/07/21 00:23:51;;;;;;;7.57;2.95;;;;;;;21.16;59.23;94599.44;5072904;28;20527;-77
2023/07/21 00:26:16;;;;;;;5.70;2.72;;;;;;;21.06;59.47;94595.53;5087872;28;20505;-79
2023/07/21 00:28:42;;;;;;;5.40;3.10;;;;;;;21.14;59.26;94593.53;5074455;28;20048;-79
2023/07/21 00:31:07;;;;;;;5.70;3.10;;;;;;;21.17;58.78;94589.66;5072135;28;20032;-79
2023/07/21 00:33:33;;;;;;;4.70;2.85;;;;;;;21.14;59.46;94604.09;5088325;28;20024;-79
2023/07/21 00:35:58;;;;;;;5.22;2.97;;;;;;;21.16;59.25;94595.97;5089445;28;20032;-80
2023/07/21 00:38:25;;;;;;;5.60;2.92;;;;;;;21.09;59.14;94580.13;5083513;28;20032;-79
2023/07/21 00:40:50;;;;;;;7.60;3.10;;;;;;;21.13;59.38;94591.09;5093603;28;20024;-78
2023/07/21 00:43:16;;;;;;;6.13;2.80;;;;;;;21.12;59.04;94589.47;5093343;28;20047;-78
2023/07/21 00:45:41;;;;;;;4.30;2.85;;;;;;;21.10;59.72;94583.56;5072941;28;20024;-77
2023/07/21 00:48:10;;;;;;;5.82;3.28;;;;;;;20.98;59.94;94591.25;5071253;28;20023;-78
2023/07/21 00:50:46;;;;;;;4.18;2.95;;;;;;;20.82;59.95;94588.94;5073154;28;20510;-78
2023/07/21 00:53:11;;;;;;;4.25;3.20;;;;;;;20.83;60.13;94590.53;5094403;28;20113;-77
2023/07/21 00:55:38;;;;;;;4.00;2.80;;;;;;;20.76;60.19;94590.53;5089445;28;20032;-77
2023/07/21 00:58:04;;;;;;;3.67;3.00;;;;;;;20.77;60.09;94586.06;5073612;28;20036;-78
2023/07/21 01:00:31;;;;;;;4.13;3.03;;;;;;;20.63;60.93;94575.41;5087163;28;20031;-77
2023/07/21 01:02:57;;;;;;;6.15;3.00;;;;;;;20.62;60.69;94573.81;5095605;28;20111;-78
2023/07/21 01:05:24;;;;;;;4.70;3.05;;;;;;;20.74;60.52;94576.69;5088193;28;20089;-78
2023/07/21 01:07:50;;;;;;;5.88;3.30;;;;;;;20.85;60.21;94577.97;5053814;28;20403;-79
2023/07/21 01:10:16;;;;;;;5.53;3.25;;;;;;;20.69;60.62;94568.53;5053073;28;20035;-78
2023/07/21 01:12:41;;;;;;;7.15;3.00;;;;;;;20.74;60.55;94576.69;5078621;28;20030;-78
2023/07/21 01:15:07;;;;;;;5.68;3.15;;;;;;;20.64;60.81;94565.66;5091730;28;20020;-78
2023/07/21 01:17:33;;;;;;;4.82;3.20;;;;;;;20.60;60.75;94569.72;5079127;28;20024;-78
2023/07/21 01:19:58;;;;;;;3.97;2.72;;;;;;;20.66;60.96;94568.94;5064742;28;20044;-78
2023/07/21 01:22:25;;;;;;;4.88;3.10;;;;;;;20.68;60.78;94561.66;5081794;28;20035;-78
2023/07/21 01:24:50;;;;;;;7.38;3.17;;;;;;;20.53;61.12;94556.47;5076888;28;20042;-78
2023/07/21 01:27:20;;;;;;;6.30;3.22;;;;;;;20.53;61.10;94548.56;5092432;28;20498;-78
2023/07/21 01:29:46;;;;;;;6.95;3.78;;;;;;;20.53;61.05;94556.47;5075003;28;20035;-78
2023/07/21 01:32:12;;;;;;;4.53;3.28;;;;;;;20.56;61.01;94555.28;5062625;28;20389;-78
2023/07/21 01:34:38;;;;;;;6.10;3.00;;;;;;;20.56;60.99;94557.91;5092357;28;20028;-77
2023/07/21 01:37:04;;;;;;;5.40;3.30;;;;;;;20.50;61.04;94554.19;5075932;28;20030;-77
2023/07/21 01:39:29;;;;;;;4.65;3.25;;;;;;;20.52;61.39;94546.91;5100085;28;20070;-77
2023/07/21 01:41:55;;;;;;;4.82;3.08;;;;;;;20.51;61.11;94558.50;5079808;28;20473;-77
2023/07/21 01:44:21;;;;;;;5.32;3.33;;;;;;;20.50;61.35;94559.47;5095299;28;20032;-77
2023/07/21 01:46:48;;;;;;;4.00;2.70;;;;;;;20.12;62.70;94573.03;5094621;28;20024;-77
2023/07/21 01:49:15;;;;;;;5.00;3.20;;;;;;;20.00;63.52;94588.56;5110394;28;20035;-77
2023/07/21 01:51:41;;;;;;;5.65;3.20;;;;;;;19.99;63.64;94605.38;5111700;28;20076;-77
2023/07/21 01:54:10;;;;;;;7.80;3.40;;;;;;;19.86;64.38;94610.53;5082081;28;20459;-77
2023/07/21 01:56:42;;;;;;;6.20;3.50;;;;;;;19.76;64.34;94602.13;5085527;28;20024;-77
2023/07/21 01:59:07;;;;;;;3.58;2.80;;;;;;;19.73;64.85;94615.69;5075370;28;20123;-77
2023/07/21 02:01:33;;;;;;;5.82;3.78;;;;;;;19.75;64.20;94619.78;5090935;28;20095;-77
2023/07/21 02:03:59;;;;;;;7.47;3.38;;;;;;;19.55;65.09;94613.44;5057905;28;20481;-78
2023/07/21 02:06:24;;;;;;;5.03;3.63;;;;;;;19.57;64.77;94609.63;5092154;28;20032;-81
2023/07/21 02:08:50;;;;;;;8.60;3.85;;;;;;;19.58;65.20;94603.34;5075991;28;20062;-77
2023/07/21 02:11:15;;;;;;;5.18;3.33;;;;;;;19.53;65.00;94597.84;5114079;28;20485;-77
2023/07/21 02:13:41;;;;;;;4.93;3.30;;;;;;;19.63;64.90;94610.69;5085404;28;20246;-77
2023/07/21 02:16:06;;;;;;;7.35;3.63;;;;;;;19.58;64.76;94618.31;5092758;28;20062;-77
2023/07/21 02:18:33;;;;;;;6.95;3.60;;;;;;;19.62;64.48;94615.13;5107826;28;20401;-79
2023/07/21 02:21:02;;;;;;;8.80;3.80;;;;;;;19.45;65.34;94612.94;5112603;28;20027;-77
2023/07/21 02:23:28;;;;;;;6.45;3.67;;;;;;;19.32;65.44;94603.88;5082542;28;20029;-77
2023/07/21 02:25:56;;;;;;;5.88;3.50;;;;;;;19.48;65.51;94610.75;5091119;28;20043;-76
2023/07/21 02:28:21;;;;;;;5.28;3.20;;;;;;;19.31;65.53;94606.72;5090414;28;20043;-77
2023/07/21 02:30:48;;;;;;;5.32;4.03;;;;;;;19.13;66.39;94604.47;5092136;28;20028;-77
2023/07/21 02:33:15;;;;;;;5.18;3.60;;;;;;;19.17;66.34;94590.75;5083565;28;20032;-77
2023/07/21 02:35:40;;;;;;;7.90;3.88;;;;;;;19.08;67.00;94597.09;5098294;28;20087;-77
2023/07/21 02:38:05;;;;;;;7.97;3.97;;;;;;;19.08;66.78;94607.63;5092644;28;20570;-77
2023/07/21 02:40:31;;;;;;;6.72;3.90;;;;;;;18.96;66.98;94582.81;5105727;28;20036;-77
2023/07/21 02:42:57;;;;;;;6.65;3.70;;;;;;;19.06;67.38;94608.84;5091419;28;20097;-77
2023/07/21 02:45:22;;;;;;;4.82;3.53;;;;;;;19.06;67.15;94593.88;5091984;28;20024;-77
2023/07/21 02:47:47;;;;;;;5.13;3.20;;;;;;;19.20;66.05;94590.38;5078331;28;20047;-77
2023/07/21 02:50:13;;;;;;;6.80;3.60;;;;;;;19.22;65.89;94586.75;5090682;28;20042;-78
2023/07/21 02:52:42;;;;;;;5.65;3.58;;;;;;;19.32;65.34;94597.81;5090032;28;20406;-77
2023/07/21 02:55:07;;;;;;;7.78;3.80;;;;;;;19.46;64.95;94599.56;5093169;28;20042;-77
2023/07/21 02:57:34;;;;;;;7.60;3.47;;;;;;;19.44;64.92;94580.50;5088450;28;20032;-77
2023/07/21 03:00:01;;;;;;;6.90;3.60;;;;;;;19.50;64.75;94600.84;5091920;28;20051;-77
2023/07/21 03:02:26;;;;;;;6.75;3.60;;;;;;;19.68;64.50;94604.88;5098933;28;20050;-78
2023/07/21 03:04:52;;;;;;;5.15;3.53;;;;;;;19.88;63.62;94605.06;5072454;28;20031;-77
2023/07/21 03:07:17;;;;;;;4.20;3.17;;;;;;;19.78;63.64;94600.09;5092287;28;20032;-77
2023/07/21 03:09:45;;;;;;;6.03;3.60;;;;;;;19.83;63.65;94593.25;5091307;28;20150;-77
2023/07/21 03:12:11;;;;;;;6.93;3.60;;;;;;;19.77;63.36;94580.84;5090803;28;20039;-77
2023/07/21 03:14:36;;;;;;;7.55;3.67;;;;;;;19.85;63.30;94604.44;5072096;28;20410;-77
2023/07/21 03:17:02;;;;;;;5.95;3.60;;;;;;;19.86;63.41;94607.88;5090508;28;20051;-78
2023/07/21 03:19:33;;;;;;;4.72;3.30;;;;;;;19.81;63.28;94602.38;5091992;28;20486;-77
2023/07/21 03:21:58;;;;;;;;;;;;;;;19.88;63.74;94608.53;5090308;28;20477;-77
2023/07/21 03:24:23;;;;;;;5.93;3.80;;;;;;;19.84;63.80;94602.00;5091411;28;19916;-76
2023/07/21 03:26:50;;;;;;;7.70;3.78;;;;;;;19.95;64.02;94612.03;5099583;28;20781;-78
2023/07/21 03:29:16;;;;;;;7.25;3.60;;;;;;;19.88;64.25;94613.78;5110681;28;20023;-78
2023/07/21 03:31:41;;;;;;;7.40;4.20;;;;;;;19.73;64.57;94607.78;5106580;28;20409;-78
2023/07/21 03:34:07;;;;;;;6.65;4.10;;;;;;;19.51;65.48;94613.00;5073890;28;20043;-77
2023/07/21 03:36:35;;;;;;;8.40;3.75;;;;;;;19.38;65.75;94618.13;5090683;28;20072;-78
2023/07/21 03:39:00;;;;;;;5.70;3.67;;;;;;;19.39;65.65;94623.22;5087301;28;20027;-77
2023/07/21 03:41:26;;;;;;;6.13;3.75;;;;;;;19.51;65.53;94626.16;5102598;28;20035;-77
2023/07/21 03:43:54;;;;;;;4.55;3.65;;;;;;;19.38;65.68;94623.38;5059134;28;20035;-78
2023/07/21 03:46:19;;;;;;;6.65;4.00;;;;;;;19.32;65.92;94624.13;5092191;28;20445;-77
2023/07/21 03:48:45;;;;;;;7.47;4.20;;;;;;;19.43;66.53;94642.09;5087905;28;20032;-78
2023/07/21 03:51:11;;;;;;;7.30;4.25;;;;;;;19.48;66.13;94633.63;5072724;28;20039;-79
2023/07/21 03:53:36;;;;;;;5.53;4.20;;;;;;;19.33;66.65;94652.09;5084659;28;20063;-79
2023/07/21 03:56:02;;;;;;;6.35;4.43;;;;;;;19.37;66.57;94645.47;5072800;28;20036;-79
2023/07/21 03:58:29;;;;;;;6.10;4.20;;;;;;;19.60;66.54;94653.22;5088001;28;20028;-79
2023/07/21 04:00:58;;;;;;;8.75;4.93;;;;;;;19.59;66.30;94662.94;5054947;28;20064;-78
2023/07/21 04:03:24;;;;;;;5.65;4.10;;;;;;;19.58;66.27;94656.03;5102173;28;20035;-77
2023/07/21 04:05:52;;;;;;;5.85;4.25;;;;;;;19.36;66.92;94665.72;5072451;28;20033;-77
2023/07/21 04:08:18;;;;;;;6.90;4.38;;;;;;;19.30;67.29;94665.63;5102576;28;20055;-77
2023/07/21 04:10:44;;;;;;;7.28;4.18;;;;;;;19.25;67.72;94670.63;5076021;28;20031;-77
2023/07/21 04:13:09;;;;;;;6.03;3.97;;;;;;;19.45;67.23;94668.25;5090763;28;20495;-77
2023/07/21 04:15:35;;;;;;;6.45;4.13;;;;;;;19.66;66.92;94667.50;5089253;28;20032;-78
2023/07/21 04:18:01;;;;;;;7.60;4.15;;;;;;;20.32;64.99;94676.03;5086624;28;20390;-77
2023/07/21 04:20:28;;;;;;;5.80;3.90;;;;;;;21.16;61.44;94665.44;5090166;28;20036;-77
2023/07/21 04:22:54;;;;;;;6.47;3.90;;;;;;;21.98;59.76;94673.47;5088400;28;20031;-77
2023/07/21 04:25:20;;;;;;;6.03;3.67;;;;;;;22.59;57.50;94665.41;5064297;28;20028;-77
2023/07/21 04:27:50;;;;;;;8.90;4.25;;;;;;;23.34;55.69;94665.06;5068406;28;20027;-77
2023/07/21 04:30:16;;;;;;;5.15;3.85;;;;;;;23.91;53.52;94668.72;5071232;28;20085;-77
2023/07/21 04:32:42;;;;;;;9.77;4.28;;;;;;;24.69;51.21;94670.25;5067105;28;20464;-77
2023/07/21 04:35:11;;;;;;;6.88;4.30;;;;;;;25.58;49.31;94668.91;5065659;28;20043;-77
2023/07/21 04:37:36;;;;;;;7.97;3.95;;;;;;;25.96;47.70;94659.84;5086651;28;20482;-78
2023/07/21 04:40:04;;;;;;;9.70;4.30;;;;;;;26.47;46.09;94663.81;5069797;28;20061;-77
2023/07/21 04:42:29;;;;;;;6.90;3.53;;;;;;;26.59;45.72;94658.50;5065481;28;20115;-77
2023/07/21 04:44:55;;;;;;;5.30;3.13;;;;;;;27.42;43.69;94645.16;5086401;28;20497;-77
2023/07/21 04:47:22;;;;;;;6.70;3.80;;;;;;;27.52;42.97;94650.69;5088957;28;20028;-76
2023/07/21 04:49:48;;;;;;;6.70;3.38;;;;;;;27.76;42.75;94648.78;5086958;28;20024;-77
2023/07/21 04:52:14;;;;;;;6.50;3.55;;;;;;;28.07;41.64;94645.63;5086854;28;20093;-77
2023/07/21 04:54:39;;;;;;;4.68;3.10;;;;;;;27.99;41.86;94643.34;5091062;28;20051;-77
2023/07/21 04:57:05;;;;;;;4.30;3.00;;;;;;;27.70;41.71;94647.88;5083056;28;20032;-77
2023/07/21 04:59:30;;;;;;;5.47;2.90;;;;;;;27.46;42.36;94640.97;5086450;28;20509;-77
2023/07/21 05:01:58;;;;;;;4.43;3.00;;;;;;;27.02;43.19;94638.69;5088773;28;20551;-78
2023/07/21 05:04:24;;;;;;;4.65;3.13;;;;;;;26.84;43.42;94649.50;5089362;28;20032;-77
2023/07/21 05:06:49;;;;;;;4.55;2.95;;;;;;;26.90;43.57;94648.56;5088752;28;20085;-77
2023/07/21 05:09:15;;;;;;;3.60;2.85;;;;;;;26.78;44.06;94642.44;5070601;28;20051;-77
2023/07/21 05:11:42;;;;;;;4.75;2.75;;;;;;;26.60;44.33;94632.69;5051527;28;20048;-77
2023/07/21 05:14:07;;;;;;;6.63;3.10;;;;;;;26.36;45.44;94639.81;5084064;28;20062;-77
2023/07/21 05:16:35;;;;;;;5.60;3.00;;;;;;;26.65;44.99;94652.25;5086004;28;20028;-78
2023/07/21 05:19:00;;;;;;;6.35;3.10;;;;;;;26.34;45.02;94629.41;5086285;28;20394;-76
2023/07/21 05:21:33;;;;;;;4.90;3.25;;;;;;;26.42;45.19;94663.69;5081922;28;20217;-77
2023/07/21 05:23:58;;;;;;;4.53;3.28;;;;;;;26.29;45.07;94653.22;5089367;28;20028;-78
2023/07/21 05:26:24;;;;;;;5.03;2.90;;;;;;;26.27;45.45;94658.78;5088191;28;20534;-75
2023/07/21 05:28:54;;;;;;;3.20;2.80;;;;;;;26.36;45.60;94658.47;5055011;28;20278;-74
2023/07/21 05:31:20;;;;;;;6.88;3.42;;;;;;;26.34;45.29;94649.88;5084296;28;20618;-75
2023/07/21 05:33:46;;;;;;;7.43;4.43;;;;;;;25.50;48.67;94655.13;5066697;28;20074;-75
2023/07/21 05:36:11;;;;;;;8.43;3.97;;;;;;;25.35;50.20;94666.94;5071630;28;20027;-75
2023/07/21 05:38:37;;;;;;;6.95;4.15;;;;;;;25.67;49.20;94658.78;5072341;28;20109;-75
2023/07/21 05:41:03;;;;;;;8.93;4.20;;;;;;;25.73;49.49;94665.03;5070833;28;20039;-75
2023/07/21 05:43:29;;;;;;;8.48;4.40;;;;;;;25.52;49.96;94674.28;5069153;28;20024;-74
2023/07/21 05:45:54;;;;;;;7.47;4.63;;;;;;;25.07;51.09;94664.75;5070829;28;20051;-75
2023/07/21 05:48:19;;;;;;;7.35;4.28;;;;;;;25.18;50.84;94660.56;5083957;28;20086;-75
2023/07/21 05:50:45;;;;;;;9.00;4.88;;;;;;;25.54;50.49;94678.34;5090870;28;20032;-76
2023/07/21 05:53:10;;;;;;;9.60;4.88;;;;;;;25.46;50.13;94675.19;5088077;28;20074;-75
2023/07/21 05:55:37;;;;;;;9.68;4.75;;;;;;;25.48;50.28;94679.25;5067697;28;20043;-75
2023/07/21 05:58:02;;;;;;;8.77;4.90;;;;;;;25.46;50.52;94669.88;5084225;28;20411;-75
2023/07/21 06:00:28;;;;;;;10.32;4.70;;;;;;;24.98;51.67;94671.38;5086077;28;20031;-75
2023/07/21 06:02:53;;;;;;;6.60;4.47;;;;;;;24.90;51.84;94683.09;5090165;28;20100;-74
2023/07/21 06:05:21;;;;;;;7.53;4.20;;;;;;;25.04;51.89;94669.69;5079672;28;20035;-76
2023/07/21 06:07:47;;;;;;;11.00;4.95;;;;;;;25.14;50.86;94672.66;5101391;28;20101;-75
2023/07/21 06:10:12;;;;;;;16.13;5.20;;;;;;;24.81;51.51;94678.28;5092851;28;20471;-75
2023/07/21 06:12:38;;;;;;;11.13;4.50;;;;;;;25.28;51.14;94678.69;5072453;28;20035;-74
2023/07/21 06:15:06;;;;;;;7.82;4.57;;;;;;;25.47;50.53;94680.28;5066491;28;20032;-74
2023/07/21 06:17:32;;;;;;;12.05;4.90;;;;;;;25.50;49.89;94682.50;5088445;28;20112;-81
2023/07/21 06:20:00;;;;;;;5.50;4.57;;;;;;;25.45;50.15;94685.03;5073406;28;20123;-83
2023/07/21 06:22:26;;;;;;;10.30;4.60;;;;;;;25.61;49.79;94672.97;5071899;28;20157;-78
2023/07/21 06:24:51;;;;;;;12.82;4.78;;;;;;;25.55;49.95;94669.38;5073047;28;20020;-78
2023/07/21 06:27:17;;;;;;;9.80;4.40;;;;;;;25.65;49.80;94679.47;5073765;28;20028;-78
2023/07/21 06:29:42;;;;;;;10.45;4.43;;;;;;;25.68;49.18;94660.38;5072451;28;20044;-79
2023/07/21 06:32:08;;;;;;;7.10;4.28;;;;;;;26.08;47.75;94665.22;5087552;28;20062;-78
2023/07/21 06:34:34;;;;;;;6.78;4.32;;;;;;;26.22;48.01;94666.66;5087413;28;20032;-78
2023/07/21 06:37:00;;;;;;;9.45;5.03;;;;;;;25.99;48.08;94647.94;5071805;28;20473;-78
2023/07/21 06:39:25;;;;;;;9.18;4.15;;;;;;;25.52;49.56;94658.34;5088897;28;20103;-77
2023/07/21 06:41:51;;;;;;;8.23;4.03;;;;;;;25.58;49.36;94654.81;5073148;28;20020;-78
2023/07/21 06:44:20;;;;;;;10.30;4.55;;;;;;;25.64;49.27;94651.25;5071463;28;20451;-78
2023/07/21 06:46:47;;;;;;;14.13;3.95;;;;;;;25.80;48.62;94650.63;5073706;28;20058;-78
2023/07/21 06:49:14;;;;;;;7.53;4.10;;;;;;;25.84;48.51;94645.69;5089284;28;20023;-78
2023/07/21 06:51:40;;;;;;;8.48;4.40;;;;;;;25.93;48.83;94654.97;5071981;28;20032;-78
2023/07/21 06:54:07;;;;;;;7.05;4.07;;;;;;;26.06;47.54;94651.31;5088963;28;20472;-78
2023/07/21 06:56:32;;;;;;;8.65;3.92;;;;;;;26.42;47.30;94670.84;5072898;28;20031;-78
2023/07/21 06:58:57;;;;;;;6.97;4.40;;;;;;;26.42;47.62;94663.69;5072706;28;20024;-78
2023/07/21 07:01:23;;;;;;;7.38;4.47;;;;;;;26.52;47.94;94669.28;5073538;28;20028;-88
2023/07/21 07:03:48;;;;;;;6.85;4.28;;;;;;;26.69;47.42;94661.44;5072039;28;20058;-84
2023/07/21 07:06:14;;;;;;;9.68;4.13;;;;;;;26.67;47.43;94654.72;5074844;28;20048;-78
2023/07/21 07:08:39;;;;;;;6.60;4.55;;;;;;;26.72;47.84;94666.28;5091581;28;20059;-77
2023/07/21 07:11:05;;;;;;;7.22;4.70;;;;;;;26.76;47.62;94642.66;5091571;28;20032;-77
2023/07/21 07:13:30;;;;;;;6.68;4.40;;;;;;;26.96;47.32;94650.28;5091066;28;20478;-78
2023/07/21 07:15:56;;;;;;;7.85;4.40;;;;;;;27.49;46.79;94649.31;5088479;28;20031;-80
2023/07/21 07:18:21;;;;;;;6.55;4.53;;;;;;;27.05;46.97;94651.56;5043967;28;20078;-78
2023/07/21 07:20:48;;;;;;;8.45;4.82;;;;;;;27.02;46.96;94640.56;5067768;28;20040;-78
2023/07/21 07:23:14;;;;;;;8.50;4.38;;;;;;;27.11;46.64;94637.31;5073086;28;20036;-78
2023/07/21 07:25:39;;;;;;;7.00;4.65;;;;;;;27.25;46.56;94648.56;5074513;28;20027;-84
2023/07/21 07:28:06;;;;;;;11.30;4.88;;;;;;;27.30;46.44;94630.00;5058240;28;20040;-79
2023/07/21 07:30:33;;;;;;;9.20;4.78;;;;;;;27.50;45.61;94629.59;5074942;28;20115;-81
2023/07/21 07:32:59;;;;;;;11.65;5.15;;;;;;;27.55;46.28;94640.38;5074383;28;20032;-83
2023/07/21 07:35:24;;;;;;;9.60;4.35;;;;;;;27.71;45.93;94648.66;5074543;28;20082;-82
2023/07/21 07:37:50;;;;;;;9.07;4.47;;;;;;;28.09;43.94;94631.25;5089743;28;20024;-75
2023/07/21 07:40:15;;;;;;;6.68;4.20;;;;;;;28.45;43.91;94638.84;5090846;28;20066;-75
2023/07/21 07:42:41;;;;;;;8.20;4.50;;;;;;;28.58;43.63;94640.34;5090774;28;20036;-73
2023/07/21 07:45:06;;;;;;;8.00;4.43;;;;;;;28.16;44.38;94639.91;5090564;28;20032;-75
2023/07/21 07:47:34;;;;;;;7.57;4.60;;;;;;;28.30;42.80;94635.88;5091953;28;20032;-75
2023/07/21 07:50:00;;;;;;;6.90;4.30;;;;;;;28.35;42.25;94641.31;5057554;28;20024;-76
2023/07/21 07:52:25;;;;;;;6.07;3.90;;;;;;;28.52;42.50;94623.44;5090662;28;20111;-76
2023/07/21 07:54:50;;;;;;;10.60;4.28;;;;;;;28.58;42.43;94639.56;5090717;28;20041;-75
2023/07/21 07:57:17;;;;;;;8.48;4.20;;;;;;;28.34;43.03;94631.69;5090463;28;20020;-77
2023/07/21 07:59:43;;;;;;;9.27;4.28;;;;;;;28.38;41.78;94638.16;5091739;28;20028;-76
2023/07/21 08:02:08;;;;;;;6.18;4.10;;;;;;;28.32;41.50;94636.44;5086822;28;20494;-78
2023/07/21 08:04:34;;;;;;;12.10;4.82;;;;;;;28.63;40.95;94644.97;5062140;28;20044;-76
2023/07/21 08:06:59;;;;;;;7.88;3.83;;;;;;;28.89;40.69;94638.97;5070149;28;20032;-77
2023/07/21 08:09:25;;;;;;;8.95;5.28;;;;;;;28.92;40.94;94621.66;5053248;28;20044;-75
2023/07/21 08:11:50;;;;;;;7.07;3.92;;;;;;;29.22;40.24;94631.94;5084154;28;20039;-78
2023/07/21 08:14:16;;;;;;;7.72;4.30;;;;;;;29.22;41.03;94634.63;5071071;28;20487;-75
2023/07/21 08:16:41;;;;;;;9.55;4.50;;;;;;;29.38;39.55;94636.44;5069992;28;20528;-77
2023/07/21 08:19:06;;;;;;;6.82;4.28;;;;;;;29.17;39.45;94635.38;5071018;28;20041;-77
2023/07/21 08:21:32;;;;;;;8.68;4.18;;;;;;;29.00;40.19;94618.53;5082615;28;20078;-77
2023/07/21 08:23:58;;;;;;;7.97;4.07;;;;;;;29.19;39.96;94643.16;5036202;28;20397;-78
2023/07/21 08:26:23;;;;;;;9.05;4.05;;;;;;;29.19;39.72;94637.81;5053580;28;20043;-76
2023/07/21 08:28:52;;;;;;;6.45;3.67;;;;;;;29.52;40.35;94636.06;5070378;28;20082;-76
2023/07/21 08:31:19;;;;;;;7.65;3.90;;;;;;;29.51;39.19;94631.78;5074715;28;20107;-76
2023/07/21 08:33:44;;;;;;;8.88;4.10;;;;;;;29.71;38.09;94634.72;5073228;28;20036;-77
2023/07/21 08:36:10;;;;;;;9.70;3.90;;;;;;;29.60;38.95;94622.25;5073061;28;20031;-77
2023/07/21 08:38:35;;;;;;;7.28;4.13;;;;;;;29.49;39.23;94636.56;5089864;28;20028;-77
2023/07/21 08:41:06;;;;;;;9.68;4.60;;;;;;;29.72;38.67;94622.94;5072992;28;20429;-80
2023/07/21 08:43:31;;;;;;;8.57;4.22;;;;;;;29.64;39.28;94614.56;5072855;28;20039;-76
2023/07/21 08:45:59;;;;;;;6.45;4.15;;;;;;;29.85;38.30;94632.47;5090069;28;20043;-77
2023/07/21 08:48:24;;;;;;;8.82;4.60;;;;;;;29.99;38.63;94631.00;5090021;28;20047;-78
2023/07/21 08:50:49;;;;;;;5.95;3.90;;;;;;;29.93;39.52;94621.31;5073011;28;20024;-77
2023/07/21 08:53:15;;;;;;;8.05;4.70;;;;;;;30.05;38.45;94634.53;5073164;28;20658;-78
2023/07/21 08:55:40;;;;;;;6.50;3.78;;;;;;;29.96;38.73;94630.72;5089992;28;20039;-78
2023/07/21 08:58:06;;;;;;;7.78;3.47;;;;;;;30.18;38.29;94628.78;5090195;28;20028;-82
2023/07/21 09:00:31;;;;;;;9.02;3.90;;;;;;;30.05;38.86;94635.34;5072956;28;20093;-76
2023/07/21 09:02:59;;;;;;;6.43;4.72;;;;;;;30.07;38.12;94632.44;5089695;28;20027;-82
2023/07/21 09:05:24;;;;;;;7.50;4.57;;;;;;;30.26;38.42;94631.03;5073061;28;20097;-76
2023/07/21 09:07:49;;;;;;;5.93;4.00;;;;;;;30.33;38.15;94632.69;5090787;28;20044;-76
2023/07/21 09:10:33;;;;;;;7.15;3.90;;;;;;;30.47;38.59;94631.19;5088221;28;20115;-75
2023/07/21 09:13:02;;;;;;;7.90;3.97;;;;;;;30.44;38.70;94616.44;5061629;28;20037;-76
2023/07/21 09:15:28;;;;;;;6.40;4.45;;;;;;;30.63;38.11;94630.25;5054595;28;20044;-76
2023/07/21 09:17:53;;;;;;;9.70;4.43;;;;;;;30.57;38.06;94625.13;5069828;28;20089;-75
2023/07/21 09:20:19;;;;;;;7.03;4.50;;;;;;;30.57;39.04;94631.28;5086131;28;20036;-75
2023/07/21 09:22:48;;;;;;;7.07;4.60;;;;;;;30.65;37.92;94627.31;5088590;28;20456;-74
2023/07/21 09:25:20;;;;;;;9.80;4.70;;;;;;;30.57;38.26;94607.16;5072267;28;20032;-75
2023/07/21 09:27:55;;;;;;;9.52;4.25;;;;;;;30.56;38.90;94618.94;5052476;28;20505;-74
2023/07/21 09:30:21;;;;;;;8.80;4.50;;;;;;;30.65;37.40;94614.72;5088891;28;20115;-75
2023/07/21 09:32:46;;;;;;;7.32;4.50;;;;;;;30.49;37.79;94623.72;5088849;28;20040;-74
2023/07/21 09:35:12;;;;;;;7.05;4.05;;;;;;;30.62;37.54;94612.56;5085178;28;20036;-77
2023/07/21 09:37:38;;;;;;;9.65;4.40;;;;;;;30.89;37.13;94601.75;5073254;28;20028;-75
2023/07/21 09:40:05;;;;;;;8.07;4.30;;;;;;;30.71;37.48;94588.78;5091655;28;20040;-76
2023/07/21 09:42:30;;;;;;;16.13;4.07;;;;;;;30.93;36.55;94608.25;5072991;28;20028;-77
2023/07/21 09:44:56;;;;;;;8.20;3.95;;;;;;;30.87;36.96;94605.75;5076182;28;20032;-78
2023/07/21 09:47:24;;;;;;;12.40;4.55;;;;;;;30.85;36.61;94594.53;5073646;28;20122;-81
2023/07/21 09:49:53;;;;;;;9.05;4.10;;;;;;;30.88;36.33;94597.47;5089980;28;20046;-73
2023/07/21 09:52:19;;;;;;;7.55;3.90;;;;;;;30.88;36.10;94600.16;5074400;28;20028;-71
2023/07/21 09:54:48;;;;;;;6.82;3.55;;;;;;;30.83;35.34;94596.66;5093092;28;20027;-73
2023/07/21 09:57:19;;;;;;;7.32;4.35;;;;;;;30.94;35.29;94587.59;5093046;28;20100;-73
2023/07/21 09:59:46;;;;;;;12.23;4.10;;;;;;;30.91;35.45;94588.91;5076185;28;20043;-72
2023/07/21 10:02:11;;;;;;;8.30;3.90;;;;;;;30.94;35.47;94593.75;5090358;28;20031;-71
2023/07/21 10:04:36;;;;;;;9.95;4.20;;;;;;;31.17;35.27;94581.00;5091163;28;20039;-76
2023/07/21 10:07:04;;;;;;;6.22;4.07;;;;;;;31.50;35.18;94589.75;5090726;28;20447;-75
2023/07/21 10:09:30;;;;;;;6.32;4.40;;;;;;;31.21;35.16;94586.66;5076231;28;20540;-76
2023/07/21 10:12:14;;;;;;;11.13;4.00;;;;;;;31.20;35.64;94598.44;5075369;28;20020;-77
2023/07/21 10:14:41;;;;;;;8.73;4.28;;;;;;;31.20;35.83;94595.75;5068537;28;20043;-75
2023/07/21 10:17:08;;;;;;;7.28;4.15;;;;;;;31.28;34.93;94587.22;5057248;28;20028;-72
2023/07/21 10:19:44;;;;;;;7.88;3.80;;;;;;;31.44;34.45;94575.50;5068692;28;20064;-73
2023/07/21 10:22:12;;;;;;;10.18;5.10;;;;;;;31.53;33.95;94578.47;5089185;28;20028;-72
2023/07/21 10:24:50;;;;;;;6.95;3.80;;;;;;;31.48;34.12;94590.03;5091847;28;20039;-74
2023/07/21 10:27:20;;;;;;;7.40;4.30;;;;;;;31.08;33.89;94583.38;5054332;28;20028;-72
2023/07/21 10:30:05;;;;;;;6.20;3.70;;;;;;;31.33;34.71;94585.38;5073852;28;20028;-70
2023/07/21 10:32:30;;;;;;;7.78;3.95;;;;;;;31.30;34.20;94585.09;5074013;28;20052;-72
2023/07/21 10:34:56;;;;;;;10.45;4.15;;;;;;;31.40;34.42;94577.13;5081309;28;20036;-71
2023/07/21 10:37:21;;;;;;;5.93;3.95;;;;;;;31.42;34.38;94584.88;5100563;28;20042;-70
2023/07/21 10:39:53;;;;;;;7.43;4.00;;;;;;;31.56;32.93;94578.75;5107040;28;20036;-69
2023/07/21 10:42:19;;;;;;;10.23;4.20;;;;;;;31.60;33.85;94573.69;5073629;28;20032;-69
2023/07/21 10:44:45;;;;;;;6.72;3.95;;;;;;;31.57;33.45;94572.34;5072847;28;20042;-69
2023/07/21 10:47:15;;;;;;;9.80;3.70;;;;;;;31.78;33.75;94573.19;5086848;28;20077;-69
2023/07/21 10:49:41;;;;;;;7.55;3.90;;;;;;;32.05;32.70;94572.19;5110066;28;20408;-70
2023/07/21 10:52:07;;;;;;;8.57;4.30;;;;;;;31.88;32.91;94564.34;5087237;28;20039;-70
2023/07/21 10:54:32;;;;;;;7.45;3.83;;;;;;;31.96;32.18;94571.91;5069637;28;20413;-71
2023/07/21 10:56:58;;;;;;;5.95;3.58;;;;;;;32.01;32.68;94569.25;5111411;27;20032;-69
2023/07/21 10:59:24;;;;;;;9.45;3.67;;;;;;;31.96;33.14;94565.75;5062360;28;20123;-70
2023/07/21 11:01:51;;;;;;;7.25;3.95;;;;;;;32.00;31.80;94559.53;5091354;28;20409;-74
2023/07/21 11:04:17;;;;;;;6.13;3.63;;;;;;;31.91;32.29;94565.69;5060554;28;20040;-72
2023/07/21 11:06:44;;;;;;;7.93;3.88;;;;;;;31.92;31.95;94549.34;5091696;28;20410;-73
2023/07/21 11:09:11;;;;;;;7.10;3.85;;;;;;;32.00;32.54;94559.53;5081298;28;20113;-74
2023/07/21 11:11:38;;;;;;;10.52;3.75;;;;;;;31.88;32.08;94550.91;5069998;28;20029;-73
2023/07/21 11:14:05;;;;;;;10.32;3.72;;;;;;;31.86;32.17;94554.94;5070402;28;20042;-73
2023/07/21 11:16:30;;;;;;;6.13;3.70;;;;;;;31.90;32.23;94554.16;5071579;28;20029;-73
2023/07/21 11:18:55;;;;;;;5.90;3.20;;;;;;;31.87;31.61;94543.13;5070850;28;20406;-74
2023/07/21 11:21:24;;;;;;;9.95;4.22;;;;;;;32.23;30.86;94543.97;5084359;28;20109;-73
2023/07/21 11:23:59;;;;;;;9.35;3.83;;;;;;;31.85;30.82;94543.41;5067917;28;21083;-73
2023/07/21 11:26:24;;;;;;;5.07;3.63;;;;;;;31.85;31.88;94527.28;5084486;28;20036;-73
2023/07/21 11:28:50;;;;;;;7.13;3.45;;;;;;;32.16;31.20;94546.13;5090376;28;20050;-73
2023/07/21 11:31:16;;;;;;;9.50;4.07;;;;;;;31.91;30.88;94542.34;5092891;28;20492;-73